sensor_id;sensor_type;location;lat;lon;timestamp;P1;durP1;ratioP1;P2;durP2;ratioP2
80344;SDS011;69658;44.498;0.166;2023-07-29T00:01:22;2.03;;;1.47;;
80344;SDS011;69658;44.498;0.166;2023-07-29T00:06:55;2.07;;;1.30;;
80344;SDS011;69658;44.498;0.166;2023-07-29T00:12:28;2.43;;;1.63;;
80344;SDS011;69658;44.498;0.166;2023-07-29T00:18:01;2.37;;;1.73;;
80344;SDS011;69658;44.498;0.166;2023-07-29T00:23:34;3.93;;;2.10;;
80344;SDS011;69658;44.498;0.166;2023-07-29T00:29:07;3.90;;;1.87;;
80344;SDS011;69658;44.498;0.166;2023-07-29T00:34:39;4.30;;;1.57;;
80344;SDS011;69658;44.498;0.166;2023-07-29T00:40:14;4.13;;;1.70;;
80344;SDS011;69658;44.498;0.166;2023-07-29T00:45:45;3.37;;;1.80;;
80344;SDS011;69658;44.498;0.166;2023-07-29T00:51:18;2.37;;;1.40;;
80344;SDS011;69658;44.498;0.166;2023-07-29T00:56:50;3.37;;;1.80;;
80344;SDS011;69658;44.498;0.166;2023-07-29T01:02:22;2.20;;;1.50;;
80344;SDS011;69658;44.498;0.166;2023-07-29T01:07:57;1.40;;;1.30;;
80344;SDS011;69658;44.498;0.166;2023-07-29T01:13:31;3.43;;;1.40;;
80344;SDS011;69658;44.498;0.166;2023-07-29T01:19:04;3.73;;;1.50;;
80344;SDS011;69658;44.498;0.166;2023-07-29T01:24:36;1.30;;;1.20;;
80344;SDS011;69658;44.498;0.166;2023-07-29T01:30:09;4.70;;;1.90;;
80344;SDS011;69658;44.498;0.166;2023-07-29T01:35:42;2.73;;;1.90;;
80344;SDS011;69658;44.498;0.166;2023-07-29T01:41:15;3.93;;;1.63;;
80344;SDS011;69658;44.498;0.166;2023-07-29T01:46:48;4.53;;;2.37;;
80344;SDS011;69658;44.498;0.166;2023-07-29T01:52:20;1.50;;;1.37;;
80344;SDS011;69658;44.498;0.166;2023-07-29T01:57:53;3.83;;;1.40;;
80344;SDS011;69658;44.498;0.166;2023-07-29T02:03:24;1.70;;;1.57;;
80344;SDS011;69658;44.498;0.166;2023-07-29T02:08:58;4.10;;;2.47;;
80344;SDS011;69658;44.498;0.166;2023-07-29T02:14:30;2.03;;;1.40;;
80344;SDS011;69658;44.498;0.166;2023-07-29T02:20:04;2.17;;;1.50;;
80344;SDS011;69658;44.498;0.166;2023-07-29T02:25:35;4.63;;;1.30;;
80344;SDS011;69658;44.498;0.166;2023-07-29T02:31:15;2.57;;;1.40;;
80344;SDS011;69658;44.498;0.166;2023-07-29T02:36:39;2.43;;;1.17;;
80344;SDS011;69658;44.498;0.166;2023-07-29T02:42:11;4.57;;;1.53;;
80344;SDS011;69658;44.498;0.166;2023-07-29T02:47:44;2.03;;;1.17;;
80344;SDS011;69658;44.498;0.166;2023-07-29T02:53:16;1.23;;;1.10;;
80344;SDS011;69658;44.498;0.166;2023-07-29T02:58:52;4.40;;;2.13;;
80344;SDS011;69658;44.498;0.166;2023-07-29T03:04:23;2.10;;;1.50;;
80344;SDS011;69658;44.498;0.166;2023-07-29T03:09:56;2.87;;;1.40;;
80344;SDS011;69658;44.498;0.166;2023-07-29T03:15:27;4.23;;;2.10;;
80344;SDS011;69658;44.498;0.166;2023-07-29T03:21:01;1.97;;;1.43;;
80344;SDS011;69658;44.498;0.166;2023-07-29T03:26:33;2.70;;;1.57;;
80344;SDS011;69658;44.498;0.166;2023-07-29T03:32:07;2.53;;;1.30;;
80344;SDS011;69658;44.498;0.166;2023-07-29T03:37:40;3.80;;;1.57;;
80344;SDS011;69658;44.498;0.166;2023-07-29T03:43:14;1.40;;;1.30;;
80344;SDS011;69658;44.498;0.166;2023-07-29T03:48:47;1.40;;;1.30;;
80344;SDS011;69658;44.498;0.166;2023-07-29T03:54:18;2.13;;;1.63;;
80344;SDS011;69658;44.498;0.166;2023-07-29T03:59:51;1.23;;;1.10;;
80344;SDS011;69658;44.498;0.166;2023-07-29T04:05:24;3.67;;;1.50;;
80344;SDS011;69658;44.498;0.166;2023-07-29T04:10:57;1.40;;;1.30;;
80344;SDS011;69658;44.498;0.166;2023-07-29T04:16:30;1.13;;;1.03;;
80344;SDS011;69658;44.498;0.166;2023-07-29T04:22:03;3.20;;;1.37;;
80344;SDS011;69658;44.498;0.166;2023-07-29T04:27:35;5.60;;;1.90;;
80344;SDS011;69658;44.498;0.166;2023-07-29T04:33:08;2.07;;;1.37;;
80344;SDS011;69658;44.498;0.166;2023-07-29T04:38:42;2.70;;;1.37;;
80344;SDS011;69658;44.498;0.166;2023-07-29T04:44:14;3.67;;;2.43;;
80344;SDS011;69658;44.498;0.166;2023-07-29T04:49:46;3.27;;;1.80;;
80344;SDS011;69658;44.498;0.166;2023-07-29T04:55:19;1.63;;;1.53;;
80344;SDS011;69658;44.498;0.166;2023-07-29T05:00:51;2.50;;;1.83;;
80344;SDS011;69658;44.498;0.166;2023-07-29T05:06:23;2.90;;;1.80;;
80344;SDS011;69658;44.498;0.166;2023-07-29T05:11:56;4.63;;;1.70;;
80344;SDS011;69658;44.498;0.166;2023-07-29T05:17:29;4.30;;;1.80;;
80344;SDS011;69658;44.498;0.166;2023-07-29T05:23:01;4.40;;;2.10;;
80344;SDS011;69658;44.498;0.166;2023-07-29T05:28:34;2.53;;;1.53;;
80344;SDS011;69658;44.498;0.166;2023-07-29T05:34:06;1.60;;;1.23;;
80344;SDS011;69658;44.498;0.166;2023-07-29T05:39:39;2.40;;;1.50;;
80344;SDS011;69658;44.498;0.166;2023-07-29T05:45:12;2.07;;;1.80;;
80344;SDS011;69658;44.498;0.166;2023-07-29T05:50:45;3.00;;;1.40;;
80344;SDS011;69658;44.498;0.166;2023-07-29T05:56:18;2.73;;;1.20;;
80344;SDS011;69658;44.498;0.166;2023-07-29T06:01:51;1.50;;;1.20;;
80344;SDS011;69658;44.498;0.166;2023-07-29T06:07:24;2.40;;;1.73;;
80344;SDS011;69658;44.498;0.166;2023-07-29T06:12:58;3.10;;;2.03;;
80344;SDS011;69658;44.498;0.166;2023-07-29T06:18:31;4.40;;;1.80;;
80344;SDS011;69658;44.498;0.166;2023-07-29T06:24:04;2.87;;;1.73;;
80344;SDS011;69658;44.498;0.166;2023-07-29T06:29:36;2.50;;;1.77;;
80344;SDS011;69658;44.498;0.166;2023-07-29T06:35:08;2.87;;;1.67;;
80344;SDS011;69658;44.498;0.166;2023-07-29T06:40:41;3.43;;;2.10;;
80344;SDS011;69658;44.498;0.166;2023-07-29T06:46:13;2.07;;;1.80;;
80344;SDS011;69658;44.498;0.166;2023-07-29T06:51:46;6.00;;;2.20;;
80344;SDS011;69658;44.498;0.166;2023-07-29T06:57:18;2.20;;;1.80;;
80344;SDS011;69658;44.498;0.166;2023-07-29T07:02:51;2.83;;;2.20;;
80344;SDS011;69658;44.498;0.166;2023-07-29T07:08:23;4.87;;;2.50;;
80344;SDS011;69658;44.498;0.166;2023-07-29T07:13:56;2.23;;;1.70;;
80344;SDS011;69658;44.498;0.166;2023-07-29T07:19:29;3.97;;;2.10;;
80344;SDS011;69658;44.498;0.166;2023-07-29T07:25:01;2.23;;;2.00;;
80344;SDS011;69658;44.498;0.166;2023-07-29T07:30:34;1.77;;;1.63;;
80344;SDS011;69658;44.498;0.166;2023-07-29T07:36:07;1.83;;;1.63;;
80344;SDS011;69658;44.498;0.166;2023-07-29T07:41:41;1.67;;;1.53;;
80344;SDS011;69658;44.498;0.166;2023-07-29T07:47:14;3.70;;;2.17;;
80344;SDS011;69658;44.498;0.166;2023-07-29T07:52:47;2.33;;;1.70;;
80344;SDS011;69658;44.498;0.166;2023-07-29T07:58:19;2.43;;;1.77;;
80344;SDS011;69658;44.498;0.166;2023-07-29T08:03:52;1.90;;;1.70;;
80344;SDS011;69658;44.498;0.166;2023-07-29T08:09:25;1.40;;;1.30;;
80344;SDS011;69658;44.498;0.166;2023-07-29T08:14:58;1.93;;;1.27;;
80344;SDS011;69658;44.498;0.166;2023-07-29T08:20:30;2.10;;;1.50;;
80344;SDS011;69658;44.498;0.166;2023-07-29T08:26:05;2.47;;;1.50;;
80344;SDS011;69658;44.498;0.166;2023-07-29T08:31:36;1.70;;;1.60;;
80344;SDS011;69658;44.498;0.166;2023-07-29T08:37:09;2.17;;;1.60;;
80344;SDS011;69658;44.498;0.166;2023-07-29T08:42:43;3.10;;;1.60;;
80344;SDS011;69658;44.498;0.166;2023-07-29T08:48:19;2.10;;;1.47;;
80344;SDS011;69658;44.498;0.166;2023-07-29T08:53:49;1.73;;;1.53;;
80344;SDS011;69658;44.498;0.166;2023-07-29T08:59:22;3.03;;;1.73;;
80344;SDS011;69658;44.498;0.166;2023-07-29T09:04:55;2.00;;;1.53;;
80344;SDS011;69658;44.498;0.166;2023-07-29T09:10:29;2.60;;;1.30;;
80344;SDS011;69658;44.498;0.166;2023-07-29T09:16:01;1.77;;;1.17;;
80344;SDS011;69658;44.498;0.166;2023-07-29T09:21:33;1.70;;;0.90;;
80344;SDS011;69658;44.498;0.166;2023-07-29T09:27:05;2.57;;;1.00;;
80344;SDS011;69658;44.498;0.166;2023-07-29T09:32:37;1.30;;;0.97;;
80344;SDS011;69658;44.498;0.166;2023-07-29T09:38:13;1.20;;;1.00;;
80344;SDS011;69658;44.498;0.166;2023-07-29T09:43:43;0.80;;;0.80;;
80344;SDS011;69658;44.498;0.166;2023-07-29T09:49:16;0.73;;;0.70;;
80344;SDS011;69658;44.498;0.166;2023-07-29T09:54:50;0.60;;;0.60;;
80344;SDS011;69658;44.498;0.166;2023-07-29T10:00:22;2.75;;;0.80;;
80344;SDS011;69658;44.498;0.166;2023-07-29T10:05:54;1.00;;;0.60;;
80344;SDS011;69658;44.498;0.166;2023-07-29T10:11:27;2.15;;;0.40;;
80344;SDS011;69658;44.498;0.166;2023-07-29T10:17:00;0.95;;;0.70;;
80344;SDS011;69658;44.498;0.166;2023-07-29T10:22:33;0.60;;;0.60;;
80344;SDS011;69658;44.498;0.166;2023-07-29T10:28:06;3.00;;;0.90;;
80344;SDS011;69658;44.498;0.166;2023-07-29T10:33:38;0.70;;;0.70;;
80344;SDS011;69658;44.498;0.166;2023-07-29T10:39:11;0.50;;;0.50;;
80344;SDS011;69658;44.498;0.166;2023-07-29T10:44:47;0.55;;;0.50;;
80344;SDS011;69658;44.498;0.166;2023-07-29T10:50:17;1.10;;;0.70;;
80344;SDS011;69658;44.498;0.166;2023-07-29T10:55:50;1.25;;;0.65;;
80344;SDS011;69658;44.498;0.166;2023-07-29T11:01:27;0.60;;;0.55;;
80344;SDS011;69658;44.498;0.166;2023-07-29T11:18:01;0.50;;;0.50;;
80344;SDS011;69658;44.498;0.166;2023-07-29T11:29:06;0.70;;;0.50;;
80344;SDS011;69658;44.498;0.166;2023-07-29T11:34:40;1.45;;;0.70;;
80344;SDS011;69658;44.498;0.166;2023-07-29T11:40:13;0.85;;;0.75;;
80344;SDS011;69658;44.498;0.166;2023-07-29T11:45:45;1.35;;;0.70;;
80344;SDS011;69658;44.498;0.166;2023-07-29T11:51:17;0.35;;;0.35;;
80344;SDS011;69658;44.498;0.166;2023-07-29T11:56:50;0.90;;;0.70;;
80344;SDS011;69658;44.498;0.166;2023-07-29T12:02:23;1.15;;;0.60;;
80344;SDS011;69658;44.498;0.166;2023-07-29T12:07:56;0.70;;;0.70;;
80344;SDS011;69658;44.498;0.166;2023-07-29T12:13:28;0.70;;;0.70;;
80344;SDS011;69658;44.498;0.166;2023-07-29T12:19:01;0.80;;;0.80;;
80344;SDS011;69658;44.498;0.166;2023-07-29T12:24:35;4.10;;;0.63;;
80344;SDS011;69658;44.498;0.166;2023-07-29T12:30:08;0.50;;;0.50;;
80344;SDS011;69658;44.498;0.166;2023-07-29T12:35:40;0.40;;;0.30;;
80344;SDS011;69658;44.498;0.166;2023-07-29T12:41:13;0.50;;;0.50;;
80344;SDS011;69658;44.498;0.166;2023-07-29T12:46:45;0.97;;;0.40;;
80344;SDS011;69658;44.498;0.166;2023-07-29T12:52:18;0.40;;;0.30;;
80344;SDS011;69658;44.498;0.166;2023-07-29T12:57:51;1.25;;;0.40;;
80344;SDS011;69658;44.498;0.166;2023-07-29T13:03:23;0.60;;;0.40;;
80344;SDS011;69658;44.498;0.166;2023-07-29T13:08:57;0.55;;;0.30;;
80344;SDS011;69658;44.498;0.166;2023-07-29T13:14:28;3.10;;;0.30;;
80344;SDS011;69658;44.498;0.166;2023-07-29T13:20:01;0.40;;;0.30;;
80344;SDS011;69658;44.498;0.166;2023-07-29T13:25:33;0.70;;;0.40;;
80344;SDS011;69658;44.498;0.166;2023-07-29T13:31:06;0.30;;;0.27;;
80344;SDS011;69658;44.498;0.166;2023-07-29T13:36:38;0.70;;;0.40;;
80344;SDS011;69658;44.498;0.166;2023-07-29T13:42:11;1.63;;;0.50;;
80344;SDS011;69658;44.498;0.166;2023-07-29T13:47:44;0.63;;;0.60;;
80344;SDS011;69658;44.498;0.166;2023-07-29T13:53:16;0.40;;;0.40;;
80344;SDS011;69658;44.498;0.166;2023-07-29T13:58:50;0.70;;;0.50;;
80344;SDS011;69658;44.498;0.166;2023-07-29T14:04:23;0.60;;;0.57;;
80344;SDS011;69658;44.498;0.166;2023-07-29T14:15:29;2.17;;;0.80;;
80344;SDS011;69658;44.498;0.166;2023-07-29T14:21:00;2.23;;;0.90;;
80344;SDS011;69658;44.498;0.166;2023-07-29T14:26:33;1.90;;;1.00;;
80344;SDS011;69658;44.498;0.166;2023-07-29T14:32:06;1.30;;;0.80;;
80344;SDS011;69658;44.498;0.166;2023-07-29T14:37:39;1.43;;;1.00;;
80344;SDS011;69658;44.498;0.166;2023-07-29T14:48:44;1.07;;;0.80;;
80344;SDS011;69658;44.498;0.166;2023-07-29T14:54:18;1.77;;;1.00;;
80344;SDS011;69658;44.498;0.166;2023-07-29T14:59:51;0.80;;;0.80;;
80344;SDS011;69658;44.498;0.166;2023-07-29T15:05:24;1.07;;;0.97;;
80344;SDS011;69658;44.498;0.166;2023-07-29T15:10:57;0.97;;;0.93;;
80344;SDS011;69658;44.498;0.166;2023-07-29T15:16:29;1.17;;;0.90;;
80344;SDS011;69658;44.498;0.166;2023-07-29T15:22:05;1.53;;;1.20;;
80344;SDS011;69658;44.498;0.166;2023-07-29T15:27:34;1.97;;;1.23;;
80344;SDS011;69658;44.498;0.166;2023-07-29T15:33:06;2.07;;;1.17;;
80344;SDS011;69658;44.498;0.166;2023-07-29T15:38:40;0.93;;;0.93;;
80344;SDS011;69658;44.498;0.166;2023-07-29T15:44:12;2.40;;;1.50;;
80344;SDS011;69658;44.498;0.166;2023-07-29T15:49:45;2.23;;;1.73;;
80344;SDS011;69658;44.498;0.166;2023-07-29T15:55:18;1.90;;;1.30;;
80344;SDS011;69658;44.498;0.166;2023-07-29T16:00:52;0.87;;;0.80;;
80344;SDS011;69658;44.498;0.166;2023-07-29T16:06:24;3.07;;;0.80;;
80344;SDS011;69658;44.498;0.166;2023-07-29T16:11:56;2.07;;;0.70;;
80344;SDS011;69658;44.498;0.166;2023-07-29T16:17:28;2.37;;;0.63;;
80344;SDS011;69658;44.498;0.166;2023-07-29T16:23:01;1.30;;;1.13;;
80344;SDS011;69658;44.498;0.166;2023-07-29T16:28:33;5.60;;;1.10;;
80344;SDS011;69658;44.498;0.166;2023-07-29T16:34:05;3.27;;;0.90;;
80344;SDS011;69658;44.498;0.166;2023-07-29T16:39:39;1.60;;;1.17;;
80344;SDS011;69658;44.498;0.166;2023-07-29T16:45:11;5.07;;;1.27;;
80344;SDS011;69658;44.498;0.166;2023-07-29T16:50:45;2.40;;;0.70;;
80344;SDS011;69658;44.498;0.166;2023-07-29T16:56:17;3.27;;;1.07;;
80344;SDS011;69658;44.498;0.166;2023-07-29T17:01:49;3.10;;;0.73;;
80344;SDS011;69658;44.498;0.166;2023-07-29T17:07:21;1.43;;;0.83;;
80344;SDS011;69658;44.498;0.166;2023-07-29T17:12:54;3.87;;;0.83;;
80344;SDS011;69658;44.498;0.166;2023-07-29T17:18:28;0.50;;;0.40;;
80344;SDS011;69658;44.498;0.166;2023-07-29T17:24:01;1.83;;;0.30;;
80344;SDS011;69658;44.498;0.166;2023-07-29T17:29:34;0.93;;;0.30;;
80344;SDS011;69658;44.498;0.166;2023-07-29T17:35:06;1.13;;;0.40;;
80344;SDS011;69658;44.498;0.166;2023-07-29T17:40:39;0.80;;;0.20;;
80344;SDS011;69658;44.498;0.166;2023-07-29T17:46:13;2.43;;;0.47;;
80344;SDS011;69658;44.498;0.166;2023-07-29T17:51:44;0.30;;;0.20;;
80344;SDS011;69658;44.498;0.166;2023-07-29T17:57:16;3.30;;;0.53;;
80344;SDS011;69658;44.498;0.166;2023-07-29T18:02:49;0.47;;;0.20;;
80344;SDS011;69658;44.498;0.166;2023-07-29T18:08:21;1.23;;;0.30;;
80344;SDS011;69658;44.498;0.166;2023-07-29T18:13:53;1.03;;;0.27;;
80344;SDS011;69658;44.498;0.166;2023-07-29T18:19:27;0.40;;;0.20;;
80344;SDS011;69658;44.498;0.166;2023-07-29T18:24:58;0.33;;;0.20;;
80344;SDS011;69658;44.498;0.166;2023-07-29T18:30:30;0.63;;;0.20;;
80344;SDS011;69658;44.498;0.166;2023-07-29T18:36:04;0.30;;;0.23;;
80344;SDS011;69658;44.498;0.166;2023-07-29T18:41:34;0.53;;;0.13;;
80344;SDS011;69658;44.498;0.166;2023-07-29T18:47:10;0.10;;;0.10;;
80344;SDS011;69658;44.498;0.166;2023-07-29T18:52:40;1.23;;;0.00;;
80344;SDS011;69658;44.498;0.166;2023-07-29T18:58:13;0.97;;;0.10;;
80344;SDS011;69658;44.498;0.166;2023-07-29T19:03:47;1.03;;;0.20;;
80344;SDS011;69658;44.498;0.166;2023-07-29T19:09:19;1.77;;;0.10;;
80344;SDS011;69658;44.498;0.166;2023-07-29T19:14:53;2.73;;;0.20;;
80344;SDS011;69658;44.498;0.166;2023-07-29T19:20:26;0.57;;;0.20;;
80344;SDS011;69658;44.498;0.166;2023-07-29T19:25:58;0.50;;;0.20;;
80344;SDS011;69658;44.498;0.166;2023-07-29T19:31:31;0.30;;;0.17;;
80344;SDS011;69658;44.498;0.166;2023-07-29T19:37:03;1.27;;;0.40;;
80344;SDS011;69658;44.498;0.166;2023-07-29T19:42:36;0.50;;;0.13;;
80344;SDS011;69658;44.498;0.166;2023-07-29T19:48:08;0.53;;;0.30;;
80344;SDS011;69658;44.498;0.166;2023-07-29T19:53:42;0.53;;;0.20;;
80344;SDS011;69658;44.498;0.166;2023-07-29T19:59:14;6.00;;;0.70;;
80344;SDS011;69658;44.498;0.166;2023-07-29T20:04:50;0.60;;;0.30;;
80344;SDS011;69658;44.498;0.166;2023-07-29T20:10:20;0.73;;;0.20;;
80344;SDS011;69658;44.498;0.166;2023-07-29T20:15:53;0.67;;;0.30;;
80344;SDS011;69658;44.498;0.166;2023-07-29T20:21:26;2.00;;;0.20;;
80344;SDS011;69658;44.498;0.166;2023-07-29T20:26:59;0.73;;;0.20;;
80344;SDS011;69658;44.498;0.166;2023-07-29T20:32:33;1.60;;;0.20;;
80344;SDS011;69658;44.498;0.166;2023-07-29T20:38:05;0.50;;;0.23;;
80344;SDS011;69658;44.498;0.166;2023-07-29T20:43:38;0.30;;;0.20;;
80344;SDS011;69658;44.498;0.166;2023-07-29T20:49:10;1.27;;;0.40;;
80344;SDS011;69658;44.498;0.166;2023-07-29T20:54:42;1.70;;;0.40;;
80344;SDS011;69658;44.498;0.166;2023-07-29T21:00:15;0.30;;;0.30;;
80344;SDS011;69658;44.498;0.166;2023-07-29T21:05:48;0.50;;;0.40;;
80344;SDS011;69658;44.498;0.166;2023-07-29T21:11:22;3.50;;;0.40;;
80344;SDS011;69658;44.498;0.166;2023-07-29T21:16:53;4.23;;;0.57;;
80344;SDS011;69658;44.498;0.166;2023-07-29T21:22:25;0.50;;;0.40;;
80344;SDS011;69658;44.498;0.166;2023-07-29T21:27:59;1.07;;;0.53;;
80344;SDS011;69658;44.498;0.166;2023-07-29T21:33:34;0.40;;;0.30;;
80344;SDS011;69658;44.498;0.166;2023-07-29T21:39:05;0.40;;;0.30;;
80344;SDS011;69658;44.498;0.166;2023-07-29T21:44:38;2.57;;;0.40;;
80344;SDS011;69658;44.498;0.166;2023-07-29T21:50:11;1.23;;;0.43;;
80344;SDS011;69658;44.498;0.166;2023-07-29T21:55:43;0.30;;;0.27;;
80344;SDS011;69658;44.498;0.166;2023-07-29T22:01:16;0.77;;;0.40;;
80344;SDS011;69658;44.498;0.166;2023-07-29T22:06:48;4.07;;;0.47;;
80344;SDS011;69658;44.498;0.166;2023-07-29T22:12:21;1.27;;;0.40;;
80344;SDS011;69658;44.498;0.166;2023-07-29T22:17:53;1.33;;;0.53;;
80344;SDS011;69658;44.498;0.166;2023-07-29T22:23:26;0.40;;;0.30;;
80344;SDS011;69658;44.498;0.166;2023-07-29T22:28:59;1.20;;;0.40;;
80344;SDS011;69658;44.498;0.166;2023-07-29T22:34:31;1.10;;;0.30;;
80344;SDS011;69658;44.498;0.166;2023-07-29T22:40:05;2.23;;;0.40;;
80344;SDS011;69658;44.498;0.166;2023-07-29T22:45:37;1.17;;;0.30;;
80344;SDS011;69658;44.498;0.166;2023-07-29T22:51:10;1.10;;;0.63;;
80344;SDS011;69658;44.498;0.166;2023-07-29T22:56:42;1.00;;;0.50;;
80344;SDS011;69658;44.498;0.166;2023-07-29T23:02:16;1.43;;;0.60;;
80344;SDS011;69658;44.498;0.166;2023-07-29T23:07:48;1.17;;;0.40;;
80344;SDS011;69658;44.498;0.166;2023-07-29T23:13:21;0.60;;;0.40;;
80344;SDS011;69658;44.498;0.166;2023-07-29T23:18:54;1.93;;;0.20;;
80344;SDS011;69658;44.498;0.166;2023-07-29T23:24:27;1.43;;;0.30;;
80344;SDS011;69658;44.498;0.166;2023-07-29T23:30:00;0.53;;;0.50;;
80344;SDS011;69658;44.498;0.166;2023-07-29T23:35:33;0.90;;;0.27;;
80344;SDS011;69658;44.498;0.166;2023-07-29T23:41:07;0.30;;;0.20;;
80344;SDS011;69658;44.498;0.166;2023-07-29T23:46:39;1.23;;;0.47;;
80344;SDS011;69658;44.498;0.166;2023-07-29T23:52:12;6.23;;;0.60;;
80344;SDS011;69658;44.498;0.166;2023-07-29T23:57:45;0.80;;;0.40;;
